KPIH/PIH METAR and TAF weather

Enter ICAO airport designator
Station Type Date Time Source
KPIH METAR 2021/07/24 19:53 UTC NOAA

KPIH 241953Z 23004KT 8SM CLR 31/02 A3018 RMK AO2 SLP163 T03060017


Station Type Date Time Source
KPIH Decoded METAR 2021/07/24 19:53 UTC NOAA

POCATELLO REGIONAL AIRPORT, ID, United States (KPIH) 42-55N 112-36W 1359M
Jul 24, 2021 - 03:53 PM EDT / 2021.07.24 1953 UTC
Wind: from the SW (230 degrees) at 5 MPH (4 KT):0
Visibility: 8 mile(s):0
Sky conditions: clear
Temperature: 87.1 F (30.6 C)
Dew Point: 35.1 F (1.7 C)
Relative Humidity: 15%
Pressure (altimeter): 30.18 in. Hg (1022 hPa)
ob: KPIH 241953Z 23004KT 8SM CLR 31/02 A3018 RMK AO2 SLP163 T03060017
cycle: 20

Station Type Date Time Source
KPIH TAF 2021/07/24 18:21 UTC NOAA

TAF KPIH 241720Z 2418/2518 21006KT P6SM SKC
FM241900 27010KT P6SM SKC
FM250200 22007KT P6SM SKC

Example: see airport list